Time;durP1;ratioP1;P1;durP2;ratioP2;P2;SDS_P1;SDS_P2;PMS_P1;PMS_P2;Temp;Humidity;BMP_temperature;BMP_pressure;BME280_temperature;BME280_humidity;BME280_pressure;Samples;Min_cycle;Max_cycle;Signal;HPM_P1;HPM_P2
2022/09/07 00:01:01;;;;;;;;;;;;;;;7.36;100.00;101039.97;3057365;19;19918;-44
2022/09/07 00:02:06;;;;;;;;;;;;;;;7.34;100.00;101041.81;3058464;19;19980;-47
2022/09/07 00:03:08;;;;;;;;;;;;;;;7.32;100.00;101038.38;3057940;19;19951;-46
2022/09/07 00:04:13;;;;;;;;;;;;;;;7.30;100.00;101028.72;3058370;19;19911;-44
2022/09/07 00:05:15;;;;;;;;;;;;;;;7.29;100.00;101027.00;3058416;19;19955;-47
2022/09/07 00:06:19;;;;;;;;;;;;;;;7.26;100.00;101025.31;3058327;19;19922;-45
2022/09/07 00:07:21;;;;;;;;;;;;;;;7.27;100.00;101028.84;3058042;19;19914;-47
2022/09/07 00:08:27;;;;;;;;;;;;;;;7.24;100.00;101019.22;3057215;19;19918;-46
2022/09/07 00:09:29;;;;;;;;;;;;;;;7.23;100.00;101022.81;3057018;19;20229;-47
2022/09/07 00:10:33;;;;;;;;;;;;;;;7.19;100.00;101015.88;3057734;19;19919;-45
2022/09/07 00:11:35;;;;;;;;;;;;;;;7.16;100.00;101015.97;3058037;19;19923;-45
2022/09/07 00:12:41;;;;;;;;;;;;;;;7.13;100.00;101018.75;3058545;19;19951;-45
2022/09/07 00:13:43;;;;;;;;;;;;;;;7.09;100.00;101014.50;3057059;19;20796;-45
2022/09/07 00:14:48;;;;;;;;;;;;;;;7.06;100.00;101017.28;3057316;19;19919;-45
2022/09/07 00:15:50;;;;;;;;;;;;;;;7.00;100.00;101022.81;3057865;19;19923;-45
2022/09/07 00:16:55;;;;;;;;;;;;;;;6.98;100.00;101016.72;3057729;19;19925;-43
2022/09/07 00:17:57;;;;;;;;;;;;;;;6.94;100.00;101015.09;3057963;19;19936;-45
2022/09/07 00:19:02;;;;;;;;;;;;;;;6.90;100.00;101018.78;3057897;19;19918;-48
2022/09/07 00:20:05;;;;;;;;;;;;;;;6.86;100.00;101018.91;3058114;19;19944;-48
2022/09/07 00:21:10;;;;;;;;;;;;;;;6.82;100.00;101017.28;3057363;19;19975;-48
2022/09/07 00:22:12;;;;;;;;;;;;;;;6.79;100.00;101016.53;3058080;19;20278;-46
2022/09/07 00:23:16;;;;;;;;;;;;;;;6.76;100.00;101014.84;3057022;19;19914;-46
2022/09/07 00:24:18;;;;;;;;;;;;;;;6.74;100.00;101014.06;3057307;19;19943;-44
2022/09/07 00:25:23;;;;;;;;;;;;;;;6.76;100.00;101012.19;3058477;19;19922;-48
2022/09/07 00:26:26;;;;;;;;;;;;;;;6.76;100.00;101011.34;3057824;19;20349;-45
2022/09/07 00:27:31;;;;;;;;;;;;;;;6.74;100.00;101014.06;3057149;19;19943;-47
2022/09/07 00:28:33;;;;;;;;;;;;;;;6.72;100.00;101009.72;3056848;19;19923;-45
2022/09/07 00:29:37;;;;;;;;;;;;;;;6.68;100.00;101005.44;3057939;19;19923;-48
2022/09/07 00:30:40;;;;;;;;;;;;;;;6.66;100.00;101005.50;3057650;19;19931;-47
2022/09/07 00:31:45;;;;;;;;;;;;;;;6.65;100.00;100997.59;3057743;19;20306;-47
2022/09/07 00:32:47;;;;;;;;;;;;;;;6.63;100.00;100994.16;3057014;19;19931;-44
2022/09/07 00:33:52;;;;;;;;;;;;;;;6.62;100.00;101003.03;3056983;19;19944;-48
2022/09/07 00:34:54;;;;;;;;;;;;;;;6.59;100.00;100998.72;3057614;19;19927;-46
2022/09/07 00:35:59;;;;;;;;;;;;;;;6.58;100.00;100999.63;3057744;19;19923;-45
2022/09/07 00:37:01;;;;;;;;;;;;;;;6.57;100.00;100999.69;3057835;19;19914;-45
2022/09/07 00:38:06;;;;;;;;;;;;;;;6.54;100.00;101000.66;3057898;19;19922;-46
2022/09/07 00:39:10;;;;;;;;;;;;;;;6.53;100.00;101004.22;3058656;19;19923;-44
2022/09/07 00:40:12;;;;;;;;;;;;;;;6.54;100.00;100999.78;3058208;19;19934;-45
2022/09/07 00:41:17;;;;;;;;;;;;;;;6.54;100.00;101005.09;3057017;19;19926;-49
2022/09/07 00:42:20;;;;;;;;;;;;;;;6.54;100.00;100995.34;3057909;19;19939;-47
2022/09/07 00:43:32;;;;;;;;;;;;;;;6.54;100.00;100999.78;3057472;19;19999;-45
2022/09/07 00:44:43;;;;;;;;;;;;;;;6.54;100.00;101000.66;3057911;19;19923;-47
2022/09/07 00:45:48;;;;;;;;;;;;;;;6.52;100.00;101005.16;3057710;19;19927;-46
2022/09/07 00:46:50;;;;;;;;;;;;;;;6.50;100.00;101009.66;3057452;19;19936;-45
2022/09/07 00:47:58;;;;;;;;;;;;;;;6.48;100.00;101003.56;3057504;19;19918;-46
2022/09/07 00:48:59;;;;;;;;;;;;;;;6.45;100.00;101001.00;3056833;19;19922;-47
2022/09/07 00:50:06;;;;;;;;;;;;;;;6.42;100.00;101001.09;3057364;19;19933;-46
2022/09/07 00:51:11;;;;;;;;;;;;;;;6.39;100.00;100999.44;3057599;19;19923;-47
2022/09/07 00:52:13;;;;;;;;;;;;;;;6.38;100.00;100999.50;3057068;19;19923;-44
2022/09/07 00:53:31;;;;;;;;;;;;;;;6.36;100.00;100996.91;3056667;19;19919;-47
2022/09/07 00:54:36;;;;;;;;;;;;;;;6.34;100.00;101000.53;3056856;19;19925;-44
2022/09/07 00:55:40;;;;;;;;;;;;;;;6.31;100.00;100995.31;3057529;19;20357;-47
2022/09/07 00:56:43;;;;;;;;;;;;;;;6.30;100.00;101001.53;3056973;19;19924;-48
2022/09/07 00:57:48;;;;;;;;;;;;;;;6.27;100.00;100997.25;3056414;19;19919;-44
2022/09/07 00:58:50;;;;;;;;;;;;;;;6.23;100.00;100990.31;3056600;19;20365;-45
2022/09/07 00:59:56;;;;;;;;;;;;;;;6.23;100.00;100990.31;3056210;19;19943;-44
2022/09/07 01:00:58;;;;;;;;;;;;;;;6.21;100.00;100992.16;3057714;19;19930;-46
2022/09/07 01:02:02;;;;;;;;;;;;;;;6.20;100.00;100989.56;3055523;19;19930;-45
2022/09/07 01:03:05;;;;;;;;;;;;;;;6.18;100.00;100981.66;3057047;19;20721;-45
2022/09/07 01:04:09;;;;;;;;;;;;;;;6.16;100.00;100987.94;3056213;19;19922;-43
2022/09/07 01:05:22;;;;;;;;;;;;;;;6.16;100.00;100990.59;3056684;19;19926;-45
2022/09/07 01:06:37;;;;;;;;;;;;;;;6.01;100.00;100973.44;3056370;19;19915;-45
2022/09/07 01:07:39;;;;;;;;;;;;;;;6.09;100.00;100993.44;3056405;19;20363;-47
2022/09/07 01:08:44;;;;;;;;;;;;;;;6.08;100.00;100991.72;3056616;19;19938;-44
2022/09/07 01:09:46;;;;;;;;;;;;;;;6.07;100.00;100989.97;3056307;19;20366;-45
2022/09/07 01:10:50;;;;;;;;;;;;;;;6.07;100.00;101000.56;3056308;19;19926;-46
2022/09/07 01:11:53;;;;;;;;;;;;;;;6.06;100.00;100990.91;3056605;19;20053;-44
2022/09/07 01:12:57;;;;;;;;;;;;;;;6.05;100.00;100991.81;3056388;19;19923;-45
2022/09/07 01:13:59;;;;;;;;;;;;;;;6.01;100.00;100992.84;3056601;19;19994;-46
2022/09/07 01:15:04;;;;;;;;;;;;;;;6.01;100.00;100989.34;3057397;19;19937;-47
2022/09/07 01:16:26;;;;;;;;;;;;;;;5.99;100.00;100992.03;3057465;19;20006;-47
2022/09/07 01:17:52;;;;;;;;;;;;;;;5.99;100.00;100994.69;3055615;19;19946;-43
2022/09/07 01:19:13;;;;;;;;;;;;;;;5.97;100.00;100996.53;3057269;19;19927;-45
2022/09/07 01:20:34;;;;;;;;;;;;;;;5.96;100.00;100996.56;3057082;19;20257;-46
2022/09/07 01:21:50;;;;;;;;;;;;;;;5.93;100.00;100988.72;3056512;19;19919;-48
2022/09/07 01:22:58;;;;;;;;;;;;;;;5.93;100.00;100997.53;3056201;19;20315;-47
2022/09/07 01:24:29;;;;;;;;;;;;;;;5.92;100.00;100984.34;3056571;19;20575;-46
2022/09/07 01:25:34;;;;;;;;;;;;;;;5.89;100.00;100985.34;3056925;19;19923;-47
2022/09/07 01:26:45;;;;;;;;;;;;;;;5.90;100.00;100992.38;3056835;19;19939;-46
2022/09/07 01:27:55;;;;;;;;;;;;;;;5.89;100.00;100990.63;3056613;19;19919;-50
2022/09/07 01:29:20;;;;;;;;;;;;;;;5.87;100.00;100986.28;3056272;19;19940;-46
2022/09/07 01:30:22;;;;;;;;;;;;;;;5.84;100.00;100987.22;3056218;19;19915;-46
2022/09/07 01:31:30;;;;;;;;;;;;;;;5.84;100.00;100986.34;3055733;19;19919;-48
2022/09/07 01:32:50;;;;;;;;;;;;;;;5.82;100.00;100982.91;3056291;19;19958;-44
2022/09/07 01:34:01;;;;;;;;;;;;;;;5.79;100.00;100984.75;3056902;19;19931;-44
2022/09/07 01:35:04;;;;;;;;;;;;;;;5.76;100.00;100984.84;3056138;19;19944;-46
2022/09/07 01:36:08;;;;;;;;;;;;;;;5.74;100.00;100980.53;3056512;19;19926;-45
2022/09/07 01:37:22;;;;;;;;;;;;;;;5.73;100.00;100984.09;3056295;19;19923;-44
2022/09/07 01:38:27;;;;;;;;;;;;;;;5.71;100.00;100977.97;3057295;19;20361;-46
2022/09/07 01:39:31;;;;;;;;;;;;;;;5.68;100.00;100976.28;3056735;19;19982;-44
2022/09/07 01:40:48;;;;;;;;;;;;;;;5.70;100.00;100978.88;3055979;19;19918;-47
2022/09/07 01:42:09;;;;;;;;;;;;;;;5.67;100.00;100979.00;3056082;19;19935;-46
2022/09/07 01:43:19;;;;;;;;;;;;;;;5.67;100.00;100979.00;3056976;19;19922;-45
2022/09/07 01:44:52;;;;;;;;;;;;;;;5.64;100.00;100979.09;3056595;19;19919;-47
2022/09/07 01:45:54;;;;;;;;;;;;;;;5.62;100.00;100975.63;3055060;19;19922;-48
2022/09/07 01:46:59;;;;;;;;;;;;;;;5.61;100.00;100979.19;3056278;19;19939;-47
2022/09/07 01:48:03;;;;;;;;;;;;;;;5.59;100.00;100981.03;3056631;19;19933;-45
2022/09/07 01:49:10;;;;;;;;;;;;;;;5.59;100.00;100986.31;3055812;19;20058;-45
2022/09/07 01:50:22;;;;;;;;;;;;;;;5.58;100.00;100980.16;3055916;19;20336;-45
2022/09/07 01:51:29;;;;;;;;;;;;;;;5.57;100.00;100983.72;3055838;19;19923;-47
2022/09/07 01:52:42;;;;;;;;;;;;;;;5.57;100.00;100982.84;3056132;19;19938;-46
2022/09/07 01:53:50;;;;;;;;;;;;;;;5.57;100.00;100988.16;3055778;19;19932;-43
2022/09/07 01:55:02;;;;;;;;;;;;;;;5.57;100.00;100989.00;3056150;19;19922;-47
2022/09/07 01:56:05;;;;;;;;;;;;;;;5.55;100.00;100980.28;3055301;19;19920;-46
2022/09/07 01:57:11;;;;;;;;;;;;;;;5.54;100.00;100975.91;3056182;19;19918;-44
2022/09/07 01:58:27;;;;;;;;;;;;;;;5.53;100.00;100979.47;3055347;19;19950;-47
2022/09/07 01:59:33;;;;;;;;;;;;;;;5.53;100.00;100978.59;3055996;19;19946;-48
2022/09/07 02:00:36;;;;;;;;;;;;;;;5.53;100.00;100975.94;3055803;19;19914;-48
2022/09/07 02:01:42;;;;;;;;;;;;;;;5.52;100.00;100974.22;3056004;19;19918;-43
2022/09/07 02:02:47;;;;;;;;;;;;;;;5.53;100.00;100978.59;3055437;19;19922;-44
2022/09/07 02:03:54;;;;;;;;;;;;;;;5.53;100.00;100976.81;3055882;19;19918;-47
2022/09/07 02:05:02;;;;;;;;;;;;;;;5.54;100.00;100977.69;3056138;19;20557;-44
2022/09/07 02:06:08;;;;;;;;;;;;;;;5.55;100.00;100979.41;3054316;19;19989;-47
2022/09/07 02:07:13;;;;;;;;;;;;;;;5.54;100.00;100975.91;3056255;19;19926;-44
2022/09/07 02:08:19;;;;;;;;;;;;;;;5.54;100.00;100982.97;3056234;19;19954;-46
2022/09/07 02:09:27;;;;;;;;;;;;;;;5.54;100.00;100988.28;3055982;19;20330;-45
2022/09/07 02:10:34;;;;;;;;;;;;;;;5.52;100.00;100974.22;3055671;19;19922;-44
2022/09/07 02:11:42;;;;;;;;;;;;;;;5.51;100.00;100977.78;3056023;19;19927;-47
2022/09/07 02:12:54;;;;;;;;;;;;;;;5.52;100.00;100974.22;3055447;19;19923;-46
2022/09/07 02:14:25;;;;;;;;;;;;;;;5.50;100.00;100970.75;3055739;19;19927;-44
2022/09/07 02:15:28;;;;;;;;;;;;;;;5.48;100.00;100972.56;3055769;19;19922;-47
2022/09/07 02:16:33;;;;;;;;;;;;;;;5.47;100.00;100968.19;3056412;19;19919;-47
2022/09/07 02:17:36;;;;;;;;;;;;;;;5.44;100.00;100970.03;3055848;19;20253;-46
2022/09/07 02:18:46;;;;;;;;;;;;;;;5.43;100.00;100965.63;3055248;19;19915;-47
2022/09/07 02:19:49;;;;;;;;;;;;;;;5.41;100.00;100962.19;3055711;19;20281;-48
2022/09/07 02:20:55;;;;;;;;;;;;;;;5.38;100.00;100964.94;3055379;19;19919;-46
2022/09/07 02:22:02;;;;;;;;;;;;;;;5.36;100.00;100963.25;3056725;19;19931;-47
2022/09/07 02:23:08;;;;;;;;;;;;;;;5.33;100.00;100958.06;3054577;19;20624;-47
2022/09/07 02:24:24;;;;;;;;;;;;;;;5.32;100.00;100965.13;3056064;19;19971;-46
2022/09/07 02:25:30;;;;;;;;;;;;;;;5.23;100.00;100951.34;3056373;19;19919;-47
2022/09/07 02:26:32;;;;;;;;;;;;;;;5.27;100.00;100963.56;3056618;19;20326;-46
2022/09/07 02:27:39;;;;;;;;;;;;;;;5.24;100.00;100959.22;3055190;19;20052;-46
2022/09/07 02:28:41;;;;;;;;;;;;;;;5.22;100.00;100965.47;3055648;19;19915;-44
2022/09/07 02:29:45;;;;;;;;;;;;;;;5.19;100.00;100968.25;3055056;19;20038;-47
2022/09/07 02:30:47;;;;;;;;;;;;;;;5.16;100.00;100966.56;3055613;19;19960;-47
2022/09/07 02:31:52;;;;;;;;;;;;;;;5.14;100.00;100963.09;3055966;19;19936;-46
2022/09/07 02:32:55;;;;;;;;;;;;;;;5.11;100.00;100960.53;3056409;19;20347;-47
2022/09/07 02:34:00;;;;;;;;;;;;;;;5.08;100.00;100957.97;3056180;19;19958;-47
2022/09/07 02:35:03;;;;;;;;;;;;;;;5.07;100.00;100956.28;3056543;19;19939;-49
2022/09/07 02:36:07;;;;;;;;;;;;;;;5.04;100.00;100961.66;3056221;19;19990;-46
2022/09/07 02:37:09;;;;;;;;;;;;;;;5.02;100.00;100956.41;3056288;19;19922;-46
2022/09/07 02:38:14;;;;;;;;;;;;;;;5.01;100.00;100961.75;3055692;19;19942;-44
2022/09/07 02:39:16;;;;;;;;;;;;;;;4.98;100.00;100952.09;3056031;19;20338;-47
2022/09/07 02:40:21;;;;;;;;;;;;;;;4.98;100.00;100959.19;3055189;19;19968;-45
2022/09/07 02:41:30;;;;;;;;;;;;;;;4.98;100.00;100951.25;3054772;19;19919;-49
2022/09/07 02:42:35;;;;;;;;;;;;;;;4.95;100.00;100956.66;3056155;19;19930;-44
2022/09/07 02:43:37;;;;;;;;;;;;;;;4.82;100.00;100936.78;3054331;19;19921;-45
2022/09/07 02:44:44;;;;;;;;;;;;;;;4.93;100.00;100950.53;3055616;19;19918;-45
2022/09/07 02:45:57;;;;;;;;;;;;;;;4.94;100.00;100949.63;3055092;19;19922;-45
2022/09/07 02:47:13;;;;;;;;;;;;;;;4.93;100.00;100942.59;3055353;19;19922;-46
2022/09/07 02:48:22;;;;;;;;;;;;;;;4.93;100.00;100951.41;3055061;19;19923;-43
2022/09/07 02:49:24;;;;;;;;;;;;;;;4.93;100.00;100942.59;3055454;19;19925;-44
2022/09/07 02:50:31;;;;;;;;;;;;;;;4.91;100.00;100940.00;3054935;19;19986;-46
2022/09/07 02:51:35;;;;;;;;;;;;;;;4.90;100.00;100942.69;3055348;19;19942;-47
2022/09/07 02:52:52;;;;;;;;;;;;;;;4.89;100.00;100936.53;3055165;19;19919;-46
2022/09/07 02:54:03;;;;;;;;;;;;;;;4.88;100.00;100932.16;3055757;19;20460;-48
2022/09/07 02:55:10;;;;;;;;;;;;;;;4.88;100.00;100933.94;3056153;19;19979;-45
2022/09/07 02:56:12;;;;;;;;;;;;;;;4.87;100.00;100929.56;3055235;19;19927;-45
2022/09/07 02:57:17;;;;;;;;;;;;;;;4.87;100.00;100926.91;3056110;19;19942;-48
2022/09/07 02:58:29;;;;;;;;;;;;;;;4.86;100.00;100926.03;3055807;19;19923;-44
2022/09/07 02:59:38;;;;;;;;;;;;;;;4.87;100.00;100933.06;3056147;19;20351;-43
2022/09/07 03:01:00;;;;;;;;;;;;;;;4.86;100.00;100925.19;3056064;19;19923;-44
2022/09/07 03:02:24;;;;;;;;;;;;;;;4.86;100.00;100927.81;3056059;19;19945;-44
2022/09/07 03:03:36;;;;;;;;;;;;;;;4.88;100.00;100933.94;3055239;19;19919;-45
2022/09/07 03:04:56;;;;;;;;;;;;;;;4.88;100.00;100926.00;3055377;19;20290;-46
2022/09/07 03:05:59;;;;;;;;;;;;;;;4.90;100.00;100926.81;3055106;19;20263;-48
2022/09/07 03:07:08;;;;;;;;;;;;;;;4.90;100.00;100924.19;3055062;19;19923;-44
2022/09/07 03:08:22;;;;;;;;;;;;;;;4.91;100.00;100923.28;3055008;19;19988;-49
2022/09/07 03:09:25;;;;;;;;;;;;;;;4.89;100.00;100914.50;3055246;19;20273;-47
2022/09/07 03:10:30;;;;;;;;;;;;;;;4.88;100.00;100918.94;3055446;19;19926;-46
2022/09/07 03:11:34;;;;;;;;;;;;;;;4.87;100.00;100921.63;3055829;19;19922;-45
2022/09/07 03:12:40;;;;;;;;;;;;;;;4.87;100.00;100916.34;3055319;19;19982;-47
2022/09/07 03:13:41;;;;;;;;;;;;;;;4.86;100.00;100922.53;3055857;19;19922;-43
2022/09/07 03:14:46;;;;;;;;;;;;;;;4.85;100.00;100911.09;3055632;19;19926;-44
2022/09/07 03:15:48;;;;;;;;;;;;;;;4.86;100.00;100919.88;3055885;19;19927;-47
2022/09/07 03:16:59;;;;;;;;;;;;;;;4.86;100.00;100915.47;3055900;19;19966;-47
2022/09/07 03:18:00;;;;;;;;;;;;;;;4.87;100.00;100921.63;3056507;19;19927;-45
2022/09/07 03:19:05;;;;;;;;;;;;;;;4.87;100.00;100913.69;3057738;19;19915;-50
2022/09/07 03:20:07;;;;;;;;;;;;;;;4.89;100.00;100925.97;3058141;19;19925;-46
2022/09/07 03:21:12;;;;;;;;;;;;;;;4.90;100.00;100918.88;3057801;19;20213;-45
2022/09/07 03:22:14;;;;;;;;;;;;;;;4.89;100.00;100915.38;3058300;19;19923;-45
2022/09/07 03:23:18;;;;;;;;;;;;;;;4.91;100.00;100915.34;3057505;19;19926;-45
2022/09/07 03:24:20;;;;;;;;;;;;;;;4.92;100.00;100919.72;3059125;19;19919;-46
2022/09/07 03:25:24;;;;;;;;;;;;;;;4.92;100.00;100920.59;3057901;19;20253;-44
2022/09/07 03:26:26;;;;;;;;;;;;;;;4.94;100.00;100924.06;3059097;19;20270;-46
2022/09/07 03:27:32;;;;;;;;;;;;;;;4.96;100.00;100926.63;3058304;19;20427;-44
2022/09/07 03:28:34;;;;;;;;;;;;;;;4.96;100.00;100919.53;3058795;19;20262;-43
2022/09/07 03:29:38;;;;;;;;;;;;;;;4.97;100.00;100923.06;3058520;19;19919;-45
2022/09/07 03:30:43;;;;;;;;;;;;;;;4.99;100.00;100915.94;3058895;19;19943;-48
2022/09/07 03:31:47;;;;;;;;;;;;;;;4.99;100.00;100926.53;3058367;19;20325;-44
2022/09/07 03:32:49;;;;;;;;;;;;;;;4.99;100.00;100921.25;3058755;19;19929;-45
2022/09/07 03:33:54;;;;;;;;;;;;;;;4.99;100.00;100913.31;3058194;19;19925;-47
2022/09/07 03:34:56;;;;;;;;;;;;;;;5.00;100.00;100917.69;3058864;19;19930;-46
2022/09/07 03:36:01;;;;;;;;;;;;;;;5.01;100.00;100917.63;3057291;19;20373;-45
2022/09/07 03:37:06;;;;;;;;;;;;;;;5.01;100.00;100916.78;3057734;19;20273;-46
2022/09/07 03:38:08;;;;;;;;;;;;;;;5.01;100.00;100917.63;3057554;19;20015;-46
2022/09/07 03:39:13;;;;;;;;;;;;;;;5.01;100.00;100925.56;3057795;19;19938;-43
2022/09/07 03:41:38;;;;;;;;;;;;;;;5.01;100.00;100925.56;3055668;19;19931;-47
2022/09/07 03:42:40;;;;;;;;;;;;;;;5.01;100.00;100919.41;3058028;19;19927;-47
2022/09/07 03:43:45;;;;;;;;;;;;;;;5.00;100.00;100912.38;3057900;19;19955;-45
2022/09/07 03:44:48;;;;;;;;;;;;;;;4.99;100.00;100915.94;3058052;19;19938;-46
2022/09/07 03:45:52;;;;;;;;;;;;;;;5.00;100.00;100928.25;3058554;19;19933;-47
2022/09/07 03:46:54;;;;;;;;;;;;;;;5.01;100.00;100916.78;3058743;19;19927;-44
2022/09/07 03:47:59;;;;;;;;;;;;;;;4.99;100.00;100927.41;3058313;19;19923;-46
2022/09/07 03:49:01;;;;;;;;;;;;;;;4.97;100.00;100926.56;3058610;19;19987;-44
2022/09/07 03:50:05;;;;;;;;;;;;;;;4.94;100.00;100915.25;3058399;19;19926;-45
2022/09/07 03:51:08;;;;;;;;;;;;;;;4.95;100.00;100924.91;3058612;19;19950;-47
2022/09/07 03:52:13;;;;;;;;;;;;;;;4.93;100.00;100929.38;3058367;19;19945;-47
2022/09/07 03:53:15;;;;;;;;;;;;;;;4.91;100.00;100925.91;3058708;19;19932;-44
2022/09/07 03:54:19;;;;;;;;;;;;;;;4.90;100.00;100932.97;3057903;19;19936;-47
2022/09/07 03:55:21;;;;;;;;;;;;;;;4.89;100.00;100925.09;3058461;19;19914;-44
2022/09/07 03:56:26;;;;;;;;;;;;;;;4.89;100.00;100930.38;3057687;19;19926;-47
2022/09/07 03:57:28;;;;;;;;;;;;;;;4.87;100.00;100921.63;3058001;19;20131;-44
2022/09/07 03:58:32;;;;;;;;;;;;;;;4.88;100.00;100926.00;3057849;19;20265;-48
2022/09/07 03:59:37;;;;;;;;;;;;;;;4.86;100.00;100927.81;3058672;19;19947;-45
2022/09/07 04:00:39;;;;;;;;;;;;;;;4.86;100.00;100933.13;3058224;19;19934;-44
2022/09/07 04:01:44;;;;;;;;;;;;;;;4.85;100.00;100923.44;3058421;19;19922;-45
2022/09/07 04:02:46;;;;;;;;;;;;;;;4.85;100.00;100923.44;3058259;19;19919;-44
2022/09/07 04:03:50;;;;;;;;;;;;;;;4.83;100.00;100928.78;3057894;19;19998;-47
2022/09/07 04:04:52;;;;;;;;;;;;;;;4.84;100.00;100921.72;3058415;19;20017;-47
2022/09/07 04:05:59;;;;;;;;;;;;;;;4.77;100.00;100907.84;3058403;19;19923;-44
2022/09/07 04:07:01;;;;;;;;;;;;;;;4.84;100.00;100916.41;3058280;19;19919;-46
2022/09/07 04:08:05;;;;;;;;;;;;;;;4.88;100.00;100926.00;3058069;19;19929;-47
2022/09/07 04:09:08;;;;;;;;;;;;;;;4.88;100.00;100923.34;3058118;19;19915;-46
2022/09/07 04:10:14;;;;;;;;;;;;;;;4.90;100.00;100924.19;3057001;19;19939;-44
2022/09/07 04:11:17;;;;;;;;;;;;;;;4.91;100.00;100918.84;3057572;19;19926;-46
2022/09/07 04:12:21;;;;;;;;;;;;;;;4.95;100.00;100924.91;3057590;19;19915;-45
2022/09/07 04:13:23;;;;;;;;;;;;;;;4.97;100.00;100923.06;3057171;19;19919;-47
2022/09/07 04:14:28;;;;;;;;;;;;;;;5.01;100.00;100925.56;3057758;19;20102;-44
2022/09/07 04:15:30;;;;;;;;;;;;;;;5.16;100.00;100921.56;3057757;19;19975;-45
2022/09/07 04:16:34;;;;;;;;;;;;;;;5.66;100.00;100921.66;3057718;19;19922;-46
2022/09/07 04:17:36;;;;;;;;;;;;;;;6.28;100.00;100924.72;3058081;19;19934;-46
2022/09/07 04:18:41;;;;;;;;;;;;;;;6.72;100.00;100930.16;3057759;19;19927;-47
2022/09/07 04:19:45;;;;;;;;;;;;;;;7.08;100.00;100933.16;3058213;19;19926;-48
2022/09/07 04:20:49;;;;;;;;;;;;;;;7.37;100.00;100939.91;3057867;19;20349;-44
2022/09/07 04:21:54;;;;;;;;;;;;;;;7.58;100.00;100944.38;3057321;19;19943;-44
2022/09/07 04:22:55;;;;;;;;;;;;;;;7.72;100.00;100959.72;3057355;19;19919;-46
2022/09/07 04:24:00;;;;;;;;;;;;;;;7.75;100.00;100962.22;3056989;19;20243;-46
2022/09/07 04:25:02;;;;;;;;;;;;;;;7.72;100.00;100957.06;3055403;19;19938;-44
2022/09/07 04:26:06;;;;;;;;;;;;;;;7.56;100.00;100963.03;3053899;19;20388;-45
2022/09/07 04:27:08;;;;;;;;;;;;;;;7.38;100.00;100958.44;3057124;19;19926;-47
2022/09/07 04:28:13;;;;;;;;;;;;;;;7.22;100.00;100952.06;3057432;19;19923;-48
2022/09/07 04:29:15;;;;;;;;;;;;;;;7.15;100.00;100959.38;3055255;19;19974;-45
2022/09/07 04:30:19;;;;;;;;;;;;;;;7.13;100.00;100949.75;3056999;19;19915;-44
2022/09/07 04:31:21;;;;;;;;;;;;;;;7.15;100.00;100956.72;3058710;19;19986;-44
2022/09/07 04:32:26;;;;;;;;;;;;;;;7.16;100.00;100957.59;3057068;19;20353;-44
2022/09/07 04:33:29;;;;;;;;;;;;;;;7.20;100.00;100959.22;3057137;19;19926;-47
2022/09/07 04:34:34;;;;;;;;;;;;;;;7.23;100.00;100959.09;3057340;19;19918;-44
2022/09/07 04:35:36;;;;;;;;;;;;;;;7.26;100.00;100966.03;3056915;19;20218;-44
2022/09/07 04:36:40;;;;;;;;;;;;;;;7.28;100.00;100964.19;3057353;19;20330;-46
2022/09/07 04:37:43;;;;;;;;;;;;;;;7.28;100.00;100961.53;3057671;19;19923;-44
2022/09/07 04:38:48;;;;;;;;;;;;;;;7.28;100.00;100973.03;3057883;19;19923;-45
2022/09/07 04:39:50;;;;;;;;;;;;;;;7.27;100.00;100958.03;3057640;19;19946;-46
2022/09/07 04:41:15;;;;;;;;;;;;;;;7.24;100.00;100960.81;3057232;19;19923;-47
2022/09/07 04:42:17;;;;;;;;;;;;;;;7.23;100.00;100967.94;3057464;19;19918;-44
2022/09/07 04:43:21;;;;;;;;;;;;;;;7.22;100.00;100962.66;3057563;19;19923;-43
2022/09/07 04:44:23;;;;;;;;;;;;;;;7.21;100.00;100971.56;3056102;19;19946;-47
2022/09/07 04:45:28;;;;;;;;;;;;;;;7.20;100.00;100976.00;3057834;19;19915;-45
2022/09/07 04:46:34;;;;;;;;;;;;;;;7.18;100.00;100969.00;3057340;19;19914;-46
2022/09/07 04:47:38;;;;;;;;;;;;;;;7.17;100.00;100975.25;3059036;19;19933;-46
2022/09/07 04:48:40;;;;;;;;;;;;;;;7.16;100.00;100978.81;3057290;19;19939;-44
2022/09/07 04:49:44;;;;;;;;;;;;;;;7.16;100.00;100979.69;3056125;19;19934;-44
2022/09/07 04:50:46;;;;;;;;;;;;;;;7.16;100.00;100976.16;3058111;19;19926;-45
2022/09/07 04:51:51;;;;;;;;;;;;;;;7.17;100.00;100976.13;3057493;19;19922;-45
2022/09/07 04:52:53;;;;;;;;;;;;;;;7.18;100.00;100971.66;3057745;19;19922;-47
2022/09/07 04:53:58;;;;;;;;;;;;;;;7.19;100.00;100974.28;3056657;19;20013;-46
2022/09/07 04:55:00;;;;;;;;;;;;;;;7.20;100.00;100975.13;3056914;19;20359;-48
2022/09/07 04:56:04;;;;;;;;;;;;;;;7.23;100.00;100980.31;3057103;19;19948;-48
2022/09/07 04:57:07;;;;;;;;;;;;;;;7.24;100.00;100977.59;3057611;19;19923;-45
2022/09/07 04:58:11;;;;;;;;;;;;;;;7.27;100.00;100975.75;3056342;19;19918;-45
2022/09/07 04:59:13;;;;;;;;;;;;;;;7.30;100.00;100981.81;3056574;19;19919;-48
2022/09/07 05:00:18;;;;;;;;;;;;;;;7.32;100.00;100979.94;3015168;19;20299;-47
2022/09/07 05:01:21;;;;;;;;;;;;;;;7.36;100.00;100980.69;3058185;19;19988;-45
2022/09/07 05:02:26;;;;;;;;;;;;;;;7.39;100.00;100973.47;3034650;19;19996;-46
2022/09/07 05:03:29;;;;;;;;;;;;;;;7.43;100.00;100971.56;3057047;19;19965;-45
2022/09/07 05:04:36;;;;;;;;;;;;;;;7.46;100.00;100966.97;3056812;19;19947;-46
2022/09/07 05:05:38;;;;;;;;;;;;;;;7.50;100.00;100971.22;3055071;19;19935;-45
2022/09/07 05:06:42;;;;;;;;;;;;;;;7.54;100.00;100970.19;3055119;19;19929;-48
2022/09/07 05:07:44;;;;;;;;;;;;;;;7.59;100.00;100970.88;3057259;19;19923;-47
2022/09/07 05:08:49;;;;;;;;;;;;;;;7.65;100.00;100961.75;3056910;19;19951;-45
2022/09/07 05:09:51;;;;;;;;;;;;;;;7.71;100.00;100972.16;3056157;19;20424;-43
2022/09/07 05:10:56;;;;;;;;;;;;;;;7.74;100.00;100972.00;3055333;19;19915;-46
2022/09/07 05:11:58;;;;;;;;;;;;;;;7.79;100.00;100970.00;3056344;19;20273;-45
2022/09/07 05:13:03;;;;;;;;;;;;;;;7.84;100.00;100975.16;3055710;19;19915;-46
2022/09/07 05:14:05;;;;;;;;;;;;;;;7.89;100.00;100975.78;3057534;19;19922;-47
2022/09/07 05:15:09;;;;;;;;;;;;;;;7.92;100.00;100976.53;3055810;19;19919;-44
2022/09/07 05:16:12;;;;;;;;;;;;;;;7.99;100.00;100969.16;3056278;19;19923;-44
2022/09/07 05:17:18;;;;;;;;;;;;;;;8.06;100.00;100967.97;3056944;19;19929;-46
2022/09/07 05:18:20;;;;;;;;;;;;;;;8.12;100.00;100973.00;3055881;19;19930;-45
2022/09/07 05:19:24;;;;;;;;;;;;;;;8.16;100.00;100966.63;3055702;19;19922;-47
2022/09/07 05:20:26;;;;;;;;;;;;;;;8.22;100.00;100963.69;3055742;19;19923;-46
2022/09/07 05:21:33;;;;;;;;;;;;;;;8.29;100.00;100964.31;3056056;19;19971;-47
2022/09/07 05:22:39;;;;;;;;;;;;;;;8.34;100.00;100966.78;3056116;19;19919;-47
2022/09/07 05:23:44;;;;;;;;;;;;;;;8.42;100.00;100970.84;3057006;19;19933;-46
2022/09/07 05:24:46;;;;;;;;;;;;;;;8.47;100.00;100962.63;3056773;19;20341;-48
2022/09/07 05:25:50;;;;;;;;;;;;;;;8.56;100.00;100972.88;3055035;19;19963;-44
2022/09/07 05:26:52;;;;;;;;;;;;;;;8.63;100.00;100967.19;3055899;19;20290;-44
2022/09/07 05:27:57;;;;;;;;;;;;;;;8.70;100.00;100970.41;3056428;19;19929;-43
2022/09/07 05:29:01;;;;;;;;;;;;;;;8.78;100.00;100973.59;3056407;19;20000;-46
2022/09/07 05:30:25;;;;;;;;;;;;;;;8.89;100.00;100981.97;3055470;19;19956;-45
2022/09/07 05:31:50;;;;;;;;;;;;;;;9.00;100.00;100974.31;3055688;19;20272;-44
2022/09/07 05:32:52;;;;;;;;;;;;;;;9.08;100.00;100970.44;3055504;19;19927;-45
2022/09/07 05:33:57;;;;;;;;;;;;;;;9.16;100.00;100970.94;3055472;19;19931;-45
2022/09/07 05:35:22;;;;;;;;;;;;;;;9.28;100.00;100983.66;3055304;19;20411;-46
2022/09/07 05:36:27;;;;;;;;;;;;;;;9.37;100.00;100973.41;3057120;19;20341;-46
2022/09/07 05:37:31;;;;;;;;;;;;;;;9.48;100.00;100980.03;3056530;19;19922;-46
2022/09/07 05:38:34;;;;;;;;;;;;;;;9.59;100.00;100978.56;3056917;19;20023;-47
2022/09/07 05:39:39;;;;;;;;;;;;;;;9.70;100.00;100984.22;3057404;19;19926;-45